createdAt,value
2017-05-24T00:00:19.305Z,1016.24
2017-05-24T00:00:45.404Z,1016.23
2017-05-24T00:01:11.539Z,1016.22
2017-05-24T00:01:37.630Z,1016.25
2017-05-24T00:02:03.754Z,1016.21
2017-05-24T00:02:29.888Z,1016.27
2017-05-24T00:02:56.034Z,1016.29
2017-05-24T00:03:22.148Z,1016.26
2017-05-24T00:03:48.306Z,1016.27
2017-05-24T00:04:14.462Z,1016.24
2017-05-24T00:04:40.597Z,1016.24
2017-05-24T00:05:06.737Z,1016.26
2017-05-24T00:05:32.833Z,1016.31
2017-05-24T00:05:58.938Z,1016.32
2017-05-24T00:06:25.032Z,1016.3
2017-05-24T00:06:51.148Z,1016.32
2017-05-24T00:07:17.284Z,1016.29
2017-05-24T00:07:43.381Z,1016.33
2017-05-24T00:08:09.522Z,1016.26
2017-05-24T00:08:35.632Z,1016.26
2017-05-24T00:09:01.760Z,1016.27
2017-05-24T00:09:27.878Z,1016.27
2017-05-24T00:09:53.982Z,1016.26
2017-05-24T00:10:20.086Z,1016.23
2017-05-24T00:10:46.199Z,1016.26
2017-05-24T00:11:12.302Z,1016.26
2017-05-24T00:11:38.410Z,1016.26
2017-05-24T00:12:04.502Z,1016.31
2017-05-24T00:12:30.626Z,1016.26
2017-05-24T00:12:56.763Z,1016.27
2017-05-24T00:13:22.885Z,1016.25
2017-05-24T00:13:49.048Z,1016.29
2017-05-24T00:14:15.186Z,1016.32
2017-05-24T00:14:41.282Z,1016.31
2017-05-24T00:15:07.385Z,1016.28
2017-05-24T00:15:33.476Z,1016.28
2017-05-24T00:15:59.573Z,1016.3
2017-05-24T00:16:25.734Z,1016.32
2017-05-24T00:16:51.857Z,1016.35
2017-05-24T00:17:17.976Z,1016.34
2017-05-24T00:17:44.086Z,1016.35
2017-05-24T00:18:10.282Z,1016.33
2017-05-24T00:18:36.396Z,1016.31
2017-05-24T00:19:02.557Z,1016.37
2017-05-24T00:19:28.683Z,1016.34
2017-05-24T00:19:54.825Z,1016.32
2017-05-24T00:20:20.977Z,1016.34
2017-05-24T00:20:47.068Z,1016.32
2017-05-24T00:21:13.179Z,1016.33
2017-05-24T00:21:39.302Z,1016.33
2017-05-24T00:22:05.395Z,1016.3
2017-05-24T00:22:31.502Z,1016.3
2017-05-24T00:22:57.601Z,1016.26
2017-05-24T00:23:23.741Z,1016.27
2017-05-24T00:23:49.898Z,1016.26
2017-05-24T00:24:16.030Z,1016.26
2017-05-24T00:24:42.143Z,1016.23
2017-05-24T00:25:08.242Z,1016.21
2017-05-24T00:25:34.376Z,1016.26
2017-05-24T00:26:00.467Z,1016.2
2017-05-24T00:26:26.598Z,1016.25
2017-05-24T00:26:52.690Z,1016.25
2017-05-24T00:27:18.791Z,1016.23
2017-05-24T00:27:44.901Z,1016.22
2017-05-24T00:28:10.989Z,1016.26
2017-05-24T00:28:37.114Z,1016.27
2017-05-24T00:29:03.249Z,1016.23
2017-05-24T00:29:29.365Z,1016.25
2017-05-24T00:29:55.513Z,1016.22
2017-05-24T00:30:21.622Z,1016.2
2017-05-24T00:30:47.739Z,1016.22
2017-05-24T00:31:13.831Z,1016.2
2017-05-24T00:31:39.960Z,1016.22
2017-05-24T00:32:06.135Z,1016.22
2017-05-24T00:32:32.239Z,1016.23
2017-05-24T00:32:58.411Z,1016.23
2017-05-24T00:33:24.509Z,1016.22
2017-05-24T00:33:50.642Z,1016.24
2017-05-24T00:34:16.735Z,1016.19
2017-05-24T00:34:42.853Z,1016.22
2017-05-24T00:35:08.990Z,1016.21
2017-05-24T00:35:35.085Z,1016.2
2017-05-24T00:36:01.202Z,1016.17
2017-05-24T00:36:27.334Z,1016.18
2017-05-24T00:36:53.463Z,1016.15
2017-05-24T00:37:19.592Z,1016.15
2017-05-24T00:37:45.716Z,1016.14
2017-05-24T00:38:11.849Z,1016.19
2017-05-24T00:38:37.988Z,1016.21
2017-05-24T00:39:04.142Z,1016.23
2017-05-24T00:39:30.284Z,1016.22
2017-05-24T00:39:56.415Z,1016.25
2017-05-24T00:40:22.513Z,1016.24
2017-05-24T00:40:48.630Z,1016.22
2017-05-24T00:41:14.731Z,1016.21
2017-05-24T00:41:40.839Z,1016.25
2017-05-24T00:42:06.953Z,1016.23
2017-05-24T00:42:33.081Z,1016.24
2017-05-24T00:42:59.255Z,1016.25
2017-05-24T00:43:25.360Z,1016.22
2017-05-24T00:43:51.493Z,1016.22
2017-05-24T00:44:17.583Z,1016.23
2017-05-24T00:44:43.709Z,1016.26
2017-05-24T00:45:09.873Z,1016.2
2017-05-24T00:45:35.961Z,1016.22
2017-05-24T00:46:02.059Z,1016.23
2017-05-24T00:46:28.192Z,1016.16
2017-05-24T00:46:54.308Z,1016.16
2017-05-24T00:47:20.430Z,1016.19
2017-05-24T00:47:46.591Z,1016.15
2017-05-24T00:48:12.740Z,1016.15
2017-05-24T00:48:38.874Z,1016.13
2017-05-24T00:49:04.964Z,1016.14
2017-05-24T00:49:31.101Z,1016.14
2017-05-24T00:49:57.306Z,1016.09
2017-05-24T00:50:23.447Z,1016.14
2017-05-24T00:50:49.545Z,1016.16
2017-05-24T00:51:15.677Z,1016.11
2017-05-24T00:51:41.798Z,1016.12
2017-05-24T00:52:07.915Z,1016.15
2017-05-24T00:52:34.080Z,1016.12
2017-05-24T00:53:00.257Z,1016.16
2017-05-24T00:53:26.372Z,1016.13
2017-05-24T00:53:52.532Z,1016.14
2017-05-24T00:54:18.689Z,1016.16
2017-05-24T00:54:44.807Z,1016.16
2017-05-24T00:55:10.963Z,1016.14
2017-05-24T00:55:37.069Z,1016.14
2017-05-24T00:56:03.156Z,1016.17
2017-05-24T00:56:29.334Z,1016.18
2017-05-24T00:56:55.441Z,1016.14
2017-05-24T00:57:21.534Z,1016.13
2017-05-24T00:57:47.683Z,1016.19
2017-05-24T00:58:13.876Z,1016.16
2017-05-24T00:58:39.996Z,1016.19
2017-05-24T00:59:06.134Z,1016.18
2017-05-24T00:59:32.265Z,1016.18
2017-05-24T00:59:58.416Z,1016.19
2017-05-24T01:00:24.521Z,1016.18
2017-05-24T01:00:50.637Z,1016.21
2017-05-24T01:01:16.734Z,1016.18
2017-05-24T01:01:42.898Z,1016.22
2017-05-24T01:02:09.043Z,1016.24
2017-05-24T01:02:35.135Z,1016.25
2017-05-24T01:03:01.245Z,1016.21
2017-05-24T01:03:27.341Z,1016.22
2017-05-24T01:03:53.470Z,1016.18
2017-05-24T01:04:19.625Z,1016.22
2017-05-24T01:04:45.752Z,1016.17
2017-05-24T01:05:11.879Z,1016.21
2017-05-24T01:05:37.973Z,1016.23
2017-05-24T01:06:04.063Z,1016.21
2017-05-24T01:06:30.174Z,1016.2
2017-05-24T01:06:56.271Z,1016.18
2017-05-24T01:07:22.411Z,1016.18
2017-05-24T01:07:48.546Z,1016.15
2017-05-24T01:08:14.701Z,1016.17
2017-05-24T01:08:40.818Z,1016.17
2017-05-24T01:09:06.945Z,1016.16
2017-05-24T01:09:33.062Z,1016.17
2017-05-24T01:09:59.200Z,1016.16
2017-05-24T01:10:25.297Z,1016.21
2017-05-24T01:10:51.417Z,1016.19
2017-05-24T01:11:17.523Z,1016.19
2017-05-24T01:11:43.621Z,1016.19
2017-05-24T01:12:09.713Z,1016.17
2017-05-24T01:12:35.847Z,1016.2
2017-05-24T01:13:01.979Z,1016.18
2017-05-24T01:13:28.091Z,1016.21
2017-05-24T01:13:54.214Z,1016.19
2017-05-24T01:14:20.373Z,1016.18
2017-05-24T01:14:46.514Z,1016.2
2017-05-24T01:15:12.659Z,1016.15
2017-05-24T01:15:38.793Z,1016.19
2017-05-24T01:16:04.915Z,1016.21
2017-05-24T01:16:31.027Z,1016.19
2017-05-24T01:16:57.262Z,1016.24
2017-05-24T01:17:23.362Z,1016.22
2017-05-24T01:17:49.523Z,1016.27
2017-05-24T01:18:15.641Z,1016.25
2017-05-24T01:18:41.812Z,1016.26
2017-05-24T01:19:07.945Z,1016.22
2017-05-24T01:19:34.064Z,1016.22
2017-05-24T01:20:00.206Z,1016.28
2017-05-24T01:20:26.370Z,1016.24
2017-05-24T01:20:52.519Z,1016.26
2017-05-24T01:21:18.609Z,1016.27
2017-05-24T01:21:44.716Z,1016.27
2017-05-24T01:22:10.835Z,1016.26
2017-05-24T01:22:36.941Z,1016.27
2017-05-24T01:23:03.087Z,1016.24
2017-05-24T01:23:29.176Z,1016.27
2017-05-24T01:23:55.315Z,1016.25
2017-05-24T01:24:21.437Z,1016.23
2017-05-24T01:24:47.551Z,1016.19
2017-05-24T01:25:13.711Z,1016.21
2017-05-24T01:25:39.843Z,1016.21
2017-05-24T01:26:05.932Z,1016.21
2017-05-24T01:26:32.033Z,1016.18
2017-05-24T01:26:58.167Z,1016.19
2017-05-24T01:27:24.310Z,1016.19
2017-05-24T01:27:50.409Z,1016.21
2017-05-24T01:28:16.568Z,1016.19
2017-05-24T01:28:42.710Z,1016.2
2017-05-24T01:29:08.843Z,1016.22
2017-05-24T01:29:34.980Z,1016.23
2017-05-24T01:30:01.106Z,1016.2
2017-05-24T01:30:27.212Z,1016.21
2017-05-24T01:30:53.326Z,1016.24
2017-05-24T01:31:19.426Z,1016.25
2017-05-24T01:31:45.534Z,1016.23
2017-05-24T01:32:11.650Z,1016.24
2017-05-24T01:32:37.748Z,1016.23
2017-05-24T01:33:03.843Z,1016.29
2017-05-24T01:33:29.970Z,1016.28
2017-05-24T01:33:56.105Z,1016.24
2017-05-24T01:34:22.217Z,1016.26
2017-05-24T01:34:48.319Z,1016.25
2017-05-24T01:35:14.482Z,1016.26
2017-05-24T01:35:40.595Z,1016.26
2017-05-24T01:36:06.720Z,1016.28
2017-05-24T01:36:32.881Z,1016.24
2017-05-24T01:36:58.976Z,1016.29
2017-05-24T01:37:25.088Z,1016.29
2017-05-24T01:37:51.229Z,1016.25
2017-05-24T01:38:17.326Z,1016.28
2017-05-24T01:38:43.436Z,1016.27
2017-05-24T01:39:09.543Z,1016.26
2017-05-24T01:39:35.697Z,1016.27
2017-05-24T01:40:01.812Z,1016.3
2017-05-24T01:40:27.916Z,1016.29
2017-05-24T01:40:54.051Z,1016.28
2017-05-24T01:41:20.163Z,1016.26
2017-05-24T01:41:46.290Z,1016.26
2017-05-24T01:42:12.395Z,1016.29
2017-05-24T01:42:38.484Z,1016.25
2017-05-24T01:43:04.628Z,1016.23
2017-05-24T01:43:30.735Z,1016.26
2017-05-24T01:43:56.881Z,1016.23
2017-05-24T01:44:23.016Z,1016.27
2017-05-24T01:44:49.131Z,1016.22
2017-05-24T01:45:15.231Z,1016.25
2017-05-24T01:45:41.339Z,1016.25
2017-05-24T01:46:07.430Z,1016.25
2017-05-24T01:46:33.550Z,1016.24
2017-05-24T01:46:59.683Z,1016.24
2017-05-24T01:47:25.804Z,1016.21
2017-05-24T01:47:51.896Z,1016.24
2017-05-24T01:48:18.033Z,1016.21
2017-05-24T01:48:44.154Z,1016.21
2017-05-24T01:49:10.295Z,1016.22
2017-05-24T01:49:36.450Z,1016.2
2017-05-24T01:50:02.566Z,1016.2
2017-05-24T01:50:28.702Z,1016.22
2017-05-24T01:50:54.850Z,1016.21
2017-05-24T01:51:20.968Z,1016.25
2017-05-24T01:51:47.076Z,1016.23
2017-05-24T01:52:13.175Z,1016.21
2017-05-24T01:52:39.287Z,1016.21
2017-05-24T01:53:05.422Z,1016.24
2017-05-24T01:53:31.551Z,1016.23
2017-05-24T01:53:57.667Z,1016.2
2017-05-24T01:54:23.845Z,1016.27
2017-05-24T01:54:49.983Z,1016.27
2017-05-24T01:55:16.103Z,1016.23
2017-05-24T01:55:42.199Z,1016.26
2017-05-24T01:56:08.313Z,1016.29
2017-05-24T01:56:34.421Z,1016.29
2017-05-24T01:57:00.603Z,1016.3
2017-05-24T01:57:26.721Z,1016.25
2017-05-24T01:57:52.852Z,1016.32
2017-05-24T01:58:19.038Z,1016.29
2017-05-24T01:58:45.173Z,1016.27
2017-05-24T01:59:11.320Z,1016.28
2017-05-24T01:59:37.481Z,1016.33
2017-05-24T02:00:03.675Z,1016.32
2017-05-24T02:00:29.799Z,1016.31
2017-05-24T02:00:55.893Z,1016.33
2017-05-24T02:01:21.993Z,1016.35
2017-05-24T02:01:48.100Z,1016.33
2017-05-24T02:02:14.185Z,1016.35
2017-05-24T02:02:40.286Z,1016.31
2017-05-24T02:03:06.417Z,1016.34
2017-05-24T02:03:32.535Z,1016.35
2017-05-24T02:03:58.655Z,1016.3
2017-05-24T02:04:24.762Z,1016.32
2017-05-24T02:04:50.934Z,1016.32
2017-05-24T02:05:17.099Z,1016.29
2017-05-24T02:05:43.237Z,1016.27
2017-05-24T02:06:09.388Z,1016.28
2017-05-24T02:06:35.551Z,1016.29
2017-05-24T02:07:01.583Z,1016.27
2017-05-24T02:07:27.727Z,1016.27
2017-05-24T02:07:53.889Z,1016.29
2017-05-24T02:08:20.035Z,1016.26
2017-05-24T02:08:46.175Z,1016.3
2017-05-24T02:09:12.341Z,1016.29
2017-05-24T02:09:38.437Z,1016.35
2017-05-24T02:10:04.577Z,1016.33
2017-05-24T02:10:30.707Z,1016.3
2017-05-24T02:10:56.806Z,1016.31
2017-05-24T02:11:22.944Z,1016.32
2017-05-24T02:11:49.047Z,1016.29
2017-05-24T02:12:15.166Z,1016.32
2017-05-24T02:12:41.304Z,1016.32
2017-05-24T02:13:07.400Z,1016.32
2017-05-24T02:13:33.515Z,1016.31
2017-05-24T02:13:59.621Z,1016.31
2017-05-24T02:14:25.750Z,1016.28
2017-05-24T02:14:51.845Z,1016.3
2017-05-24T02:15:17.993Z,1016.31
2017-05-24T02:15:44.101Z,1016.32
2017-05-24T02:16:10.188Z,1016.33
2017-05-24T02:16:36.315Z,1016.32
2017-05-24T02:17:02.448Z,1016.31
2017-05-24T02:17:28.564Z,1016.31
2017-05-24T02:17:54.695Z,1016.29
2017-05-24T02:18:20.813Z,1016.33
2017-05-24T02:18:46.915Z,1016.32
2017-05-24T02:19:13.107Z,1016.32
2017-05-24T02:19:39.193Z,1016.33
2017-05-24T02:20:05.343Z,1016.3
2017-05-24T02:20:31.448Z,1016.33
2017-05-24T02:20:57.537Z,1016.32
2017-05-24T02:21:23.637Z,1016.33
2017-05-24T02:21:49.744Z,1016.32
2017-05-24T02:22:15.839Z,1016.29
2017-05-24T02:22:41.955Z,1016.32
2017-05-24T02:23:08.091Z,1016.28
2017-05-24T02:23:34.216Z,1016.28
2017-05-24T02:24:00.330Z,1016.32
2017-05-24T02:24:26.488Z,1016.28
2017-05-24T02:24:52.672Z,1016.28
2017-05-24T02:25:18.762Z,1016.21
2017-05-24T02:25:44.867Z,1016.22
2017-05-24T02:26:10.974Z,1016.2
2017-05-24T02:26:37.085Z,1016.19
2017-05-24T02:27:03.211Z,1016.15
2017-05-24T02:27:29.342Z,1016.2
2017-05-24T02:27:55.485Z,1016.14
2017-05-24T02:28:21.609Z,1016.15
2017-05-24T02:28:47.759Z,1016.17
2017-05-24T02:29:13.938Z,1016.18
2017-05-24T02:29:40.072Z,1016.14
2017-05-24T02:30:06.211Z,1016.13
2017-05-24T02:30:32.310Z,1016.14
2017-05-24T02:30:58.444Z,1016.15
2017-05-24T02:31:24.565Z,1016.17
2017-05-24T02:31:50.663Z,1016.14
2017-05-24T02:32:16.768Z,1016.13
2017-05-24T02:32:42.945Z,1016.18
2017-05-24T02:33:09.080Z,1016.13
2017-05-24T02:33:35.194Z,1016.2
2017-05-24T02:34:01.294Z,1016.16
2017-05-24T02:34:27.388Z,1016.14
2017-05-24T02:34:53.547Z,1016.17
2017-05-24T02:35:19.676Z,1016.14
2017-05-24T02:35:45.766Z,1016.15
2017-05-24T02:36:11.925Z,1016.19
2017-05-24T02:36:38.032Z,1016.15
2017-05-24T02:37:04.119Z,1016.17
2017-05-24T02:37:30.218Z,1016.16
2017-05-24T02:37:56.327Z,1016.16
2017-05-24T02:38:22.445Z,1016.15
2017-05-24T02:38:48.566Z,1016.14
2017-05-24T02:39:14.702Z,1016.13
2017-05-24T02:39:40.797Z,1016.15
2017-05-24T02:40:06.903Z,1016.15
2017-05-24T02:40:33.016Z,1016.13
2017-05-24T02:40:59.115Z,1016.13
2017-05-24T02:41:25.232Z,1016.14
2017-05-24T02:41:51.368Z,1016.13
2017-05-24T02:42:17.488Z,1016.11
2017-05-24T02:42:43.595Z,1016.15
2017-05-24T02:43:09.717Z,1016.11
2017-05-24T02:43:35.817Z,1016.13
2017-05-24T02:44:01.942Z,1016.13
2017-05-24T02:44:28.066Z,1016.11
2017-05-24T02:44:54.156Z,1016.12
2017-05-24T02:45:20.312Z,1016.1
2017-05-24T02:45:46.409Z,1016.15
2017-05-24T02:46:12.516Z,1016.09
2017-05-24T02:46:38.635Z,1016.12
2017-05-24T02:47:04.772Z,1016.15
2017-05-24T02:47:30.882Z,1016.16
2017-05-24T02:47:57.059Z,1016.16
2017-05-24T02:48:23.175Z,1016.15
2017-05-24T02:48:49.280Z,1016.18
2017-05-24T02:49:15.380Z,1016.18
2017-05-24T02:49:41.495Z,1016.18
2017-05-24T02:50:07.628Z,1016.17
2017-05-24T02:50:33.737Z,1016.21
2017-05-24T02:50:59.832Z,1016.23
2017-05-24T02:51:25.956Z,1016.23
2017-05-24T02:51:52.073Z,1016.24
2017-05-24T02:52:18.262Z,1016.26
2017-05-24T02:52:44.387Z,1016.21
2017-05-24T02:53:10.503Z,1016.23
2017-05-24T02:53:36.629Z,1016.19
2017-05-24T02:54:02.821Z,1016.18
2017-05-24T02:54:28.931Z,1016.21
2017-05-24T02:54:55.062Z,1016.19
2017-05-24T02:55:21.170Z,1016.19
2017-05-24T02:55:47.284Z,1016.19
2017-05-24T02:56:13.381Z,1016.13
2017-05-24T02:56:39.501Z,1016.12
2017-05-24T02:57:05.636Z,1016.17
2017-05-24T02:57:31.797Z,1016.19
2017-05-24T02:57:57.958Z,1016.24
2017-05-24T02:58:24.060Z,1016.2
2017-05-24T02:58:50.166Z,1016.26
2017-05-24T02:59:16.282Z,1016.21
2017-05-24T02:59:42.380Z,1016.23
2017-05-24T03:00:08.488Z,1016.26
2017-05-24T03:00:34.581Z,1016.3
2017-05-24T03:01:00.673Z,1016.28
2017-05-24T03:01:26.785Z,1016.27
2017-05-24T03:01:52.876Z,1016.3
2017-05-24T03:02:19.006Z,1016.29
2017-05-24T03:02:45.119Z,1016.29
2017-05-24T03:03:11.266Z,1016.29
2017-05-24T03:03:37.397Z,1016.3
2017-05-24T03:04:03.517Z,1016.28
2017-05-24T03:04:29.661Z,1016.29
2017-05-24T03:04:55.770Z,1016.3
2017-05-24T03:05:21.865Z,1016.3
2017-05-24T03:05:48.003Z,1016.28
2017-05-24T03:06:14.135Z,1016.29
2017-05-24T03:06:40.289Z,1016.31
2017-05-24T03:07:06.379Z,1016.27
2017-05-24T03:07:32.481Z,1016.31
2017-05-24T03:07:58.588Z,1016.31
2017-05-24T03:08:24.710Z,1016.29
2017-05-24T03:08:50.878Z,1016.32
2017-05-24T03:09:17.012Z,1016.3
2017-05-24T03:09:43.129Z,1016.32
2017-05-24T03:10:09.251Z,1016.35
2017-05-24T03:10:35.358Z,1016.34
2017-05-24T03:11:01.475Z,1016.31
2017-05-24T03:11:27.566Z,1016.35
2017-05-24T03:11:53.734Z,1016.33
2017-05-24T03:12:19.860Z,1016.34
2017-05-24T03:12:45.976Z,1016.33
2017-05-24T03:13:12.138Z,1016.37
2017-05-24T03:13:38.281Z,1016.36
2017-05-24T03:14:04.386Z,1016.37
2017-05-24T03:14:30.510Z,1016.35
2017-05-24T03:14:56.626Z,1016.34
2017-05-24T03:15:22.734Z,1016.33
2017-05-24T03:15:48.833Z,1016.33
2017-05-24T03:16:14.921Z,1016.32
2017-05-24T03:16:41.055Z,1016.36
2017-05-24T03:17:07.184Z,1016.34
2017-05-24T03:17:33.300Z,1016.31
2017-05-24T03:17:59.487Z,1016.29
2017-05-24T03:18:25.620Z,1016.33
2017-05-24T03:18:51.739Z,1016.29
2017-05-24T03:19:17.838Z,1016.32
2017-05-24T03:19:43.976Z,1016.3
2017-05-24T03:20:10.164Z,1016.3
2017-05-24T03:20:36.263Z,1016.29
2017-05-24T03:21:02.355Z,1016.31
2017-05-24T03:21:28.509Z,1016.32
2017-05-24T03:21:54.614Z,1016.32
2017-05-24T03:22:20.702Z,1016.3
2017-05-24T03:22:46.830Z,1016.3
2017-05-24T03:23:12.990Z,1016.31
2017-05-24T03:23:39.107Z,1016.35
2017-05-24T03:24:05.255Z,1016.33
2017-05-24T03:24:31.383Z,1016.3
2017-05-24T03:24:57.534Z,1016.29
2017-05-24T03:25:23.640Z,1016.34
2017-05-24T03:25:49.753Z,1016.32
2017-05-24T03:26:15.877Z,1016.33
2017-05-24T03:26:42.010Z,1016.33
2017-05-24T03:27:08.103Z,1016.31
2017-05-24T03:27:34.198Z,1016.31
2017-05-24T03:28:00.333Z,1016.31
2017-05-24T03:28:26.427Z,1016.33
2017-05-24T03:28:52.520Z,1016.35
2017-05-24T03:29:18.713Z,1016.34
2017-05-24T03:29:44.809Z,1016.38
2017-05-24T03:30:10.940Z,1016.37
2017-05-24T03:30:37.056Z,1016.38
2017-05-24T03:31:03.178Z,1016.35
2017-05-24T03:31:29.310Z,1016.38
2017-05-24T03:31:55.405Z,1016.37
2017-05-24T03:32:21.495Z,1016.37
2017-05-24T03:32:47.635Z,1016.37
2017-05-24T03:33:13.761Z,1016.34
2017-05-24T03:33:39.853Z,1016.3
2017-05-24T03:34:06.014Z,1016.33
2017-05-24T03:34:32.171Z,1016.34
2017-05-24T03:34:58.265Z,1016.32
2017-05-24T03:35:24.367Z,1016.32
2017-05-24T03:35:50.486Z,1016.31
2017-05-24T03:36:16.593Z,1016.33
2017-05-24T03:36:42.720Z,1016.34
2017-05-24T03:37:08.811Z,1016.32
2017-05-24T03:37:34.918Z,1016.32
2017-05-24T03:38:01.072Z,1016.31
2017-05-24T03:38:27.237Z,1016.33
2017-05-24T03:38:53.395Z,1016.36
2017-05-24T03:39:19.537Z,1016.36
2017-05-24T03:39:45.642Z,1016.38
2017-05-24T03:40:11.767Z,1016.38
2017-05-24T03:40:37.873Z,1016.38
2017-05-24T03:41:03.962Z,1016.4
2017-05-24T03:41:30.096Z,1016.31
2017-05-24T03:41:56.212Z,1016.4
2017-05-24T03:42:22.341Z,1016.33
2017-05-24T03:42:48.476Z,1016.34
2017-05-24T03:43:14.638Z,1016.36
2017-05-24T03:43:40.768Z,1016.38
2017-05-24T03:44:06.904Z,1016.41
2017-05-24T03:44:33.043Z,1016.38
2017-05-24T03:44:59.165Z,1016.38
2017-05-24T03:45:25.297Z,1016.4
2017-05-24T03:45:51.390Z,1016.36
2017-05-24T03:46:17.506Z,1016.41
2017-05-24T03:46:43.637Z,1016.41
2017-05-24T03:47:09.758Z,1016.36
2017-05-24T03:47:35.865Z,1016.41
2017-05-24T03:48:02.009Z,1016.4
2017-05-24T03:48:28.152Z,1016.37
2017-05-24T03:48:54.316Z,1016.36
2017-05-24T03:49:20.435Z,1016.36
2017-05-24T03:49:46.526Z,1016.36
2017-05-24T03:50:12.665Z,1016.39
2017-05-24T03:50:38.791Z,1016.36
2017-05-24T03:51:04.883Z,1016.37
2017-05-24T03:51:31.017Z,1016.38
2017-05-24T03:51:57.200Z,1016.38
2017-05-24T03:52:23.290Z,1016.35
2017-05-24T03:52:49.422Z,1016.33
2017-05-24T03:53:15.612Z,1016.37
2017-05-24T03:53:41.749Z,1016.34
2017-05-24T03:54:07.874Z,1016.34
2017-05-24T03:54:34.008Z,1016.33
2017-05-24T03:55:00.125Z,1016.34
2017-05-24T03:55:26.220Z,1016.33
2017-05-24T03:55:52.317Z,1016.37
2017-05-24T03:56:18.412Z,1016.32
2017-05-24T03:56:44.503Z,1016.35
2017-05-24T03:57:10.666Z,1016.3
2017-05-24T03:57:36.766Z,1016.37
2017-05-24T03:58:02.897Z,1016.35
2017-05-24T03:58:29.014Z,1016.37
2017-05-24T03:58:55.112Z,1016.37
2017-05-24T03:59:21.246Z,1016.39
2017-05-24T03:59:47.340Z,1016.4
2017-05-24T04:00:13.455Z,1016.41
2017-05-24T04:00:39.624Z,1016.4
2017-05-24T04:01:05.721Z,1016.4
2017-05-24T04:01:31.836Z,1016.41
2017-05-24T04:01:57.942Z,1016.41
2017-05-24T04:02:24.072Z,1016.41
2017-05-24T04:02:50.184Z,1016.39
2017-05-24T04:03:16.339Z,1016.38
2017-05-24T04:03:42.430Z,1016.4
2017-05-24T04:04:08.595Z,1016.39
2017-05-24T04:04:34.747Z,1016.4
2017-05-24T04:05:00.861Z,1016.37
2017-05-24T04:05:26.967Z,1016.39
2017-05-24T04:05:53.066Z,1016.4
2017-05-24T04:06:19.187Z,1016.42
2017-05-24T04:06:45.289Z,1016.4
2017-05-24T04:07:11.395Z,1016.38
2017-05-24T04:07:37.483Z,1016.42
2017-05-24T04:08:03.607Z,1016.41
2017-05-24T04:08:29.771Z,1016.38
2017-05-24T04:08:55.864Z,1016.4
2017-05-24T04:09:21.996Z,1016.43
2017-05-24T04:09:48.135Z,1016.43
2017-05-24T04:10:14.238Z,1016.4
2017-05-24T04:10:40.342Z,1016.39
2017-05-24T04:11:06.431Z,1016.41
2017-05-24T04:11:32.556Z,1016.41
2017-05-24T04:11:58.719Z,1016.43
2017-05-24T04:12:24.810Z,1016.41
2017-05-24T04:12:51.009Z,1016.43
2017-05-24T04:13:17.114Z,1016.46
2017-05-24T04:13:43.283Z,1016.43
2017-05-24T04:14:09.422Z,1016.42
2017-05-24T04:14:35.523Z,1016.45
2017-05-24T04:15:01.651Z,1016.43
2017-05-24T04:15:27.753Z,1016.47
2017-05-24T04:15:53.898Z,1016.48
2017-05-24T04:16:19.994Z,1016.48
2017-05-24T04:16:46.129Z,1016.51
2017-05-24T04:17:12.222Z,1016.53
2017-05-24T04:17:38.313Z,1016.5
2017-05-24T04:18:04.451Z,1016.53
2017-05-24T04:18:30.600Z,1016.54
2017-05-24T04:18:56.715Z,1016.57
2017-05-24T04:19:22.823Z,1016.56
2017-05-24T04:19:48.950Z,1016.57
2017-05-24T04:20:15.073Z,1016.56
2017-05-24T04:20:41.169Z,1016.6
2017-05-24T04:21:07.258Z,1016.56
2017-05-24T04:21:33.396Z,1016.62
2017-05-24T04:21:59.523Z,1016.65
2017-05-24T04:22:25.614Z,1016.64
2017-05-24T04:22:51.751Z,1016.63
2017-05-24T04:23:17.850Z,1016.65
2017-05-24T04:23:43.966Z,1016.67
2017-05-24T04:24:10.093Z,1016.68
2017-05-24T04:24:36.229Z,1016.64
2017-05-24T04:25:02.367Z,1016.62
2017-05-24T04:25:28.492Z,1016.63
2017-05-24T04:25:54.586Z,1016.62
2017-05-24T04:26:20.692Z,1016.61
2017-05-24T04:26:46.821Z,1016.63
2017-05-24T04:27:12.910Z,1016.65
2017-05-24T04:27:39.015Z,1016.64
2017-05-24T04:28:05.205Z,1016.67
2017-05-24T04:28:31.326Z,1016.65
2017-05-24T04:28:57.442Z,1016.68
2017-05-24T04:29:23.575Z,1016.69
2017-05-24T04:29:49.689Z,1016.68
2017-05-24T04:30:15.811Z,1016.65
2017-05-24T04:30:41.944Z,1016.65
2017-05-24T04:31:08.037Z,1016.7
2017-05-24T04:31:34.172Z,1016.68
2017-05-24T04:32:00.261Z,1016.66
2017-05-24T04:32:26.415Z,1016.67
2017-05-24T04:32:52.522Z,1016.63
2017-05-24T04:33:18.612Z,1016.65
2017-05-24T04:33:44.710Z,1016.64
2017-05-24T04:34:10.900Z,1016.57
2017-05-24T04:34:37.024Z,1016.63
2017-05-24T04:35:03.116Z,1016.61
2017-05-24T04:35:29.225Z,1016.64
2017-05-24T04:35:55.324Z,1016.68
2017-05-24T04:36:21.413Z,1016.66
2017-05-24T04:36:47.519Z,1016.66
2017-05-24T04:37:13.620Z,1016.7
2017-05-24T04:37:39.712Z,1016.74
2017-05-24T04:38:05.870Z,1016.72
2017-05-24T04:38:32.006Z,1016.69
2017-05-24T04:38:58.119Z,1016.71
2017-05-24T04:39:24.263Z,1016.71
2017-05-24T04:39:50.427Z,1016.74
2017-05-24T04:40:16.540Z,1016.72
2017-05-24T04:40:42.639Z,1016.71
2017-05-24T04:41:08.745Z,1016.68
2017-05-24T04:41:34.840Z,1016.68
2017-05-24T04:42:00.955Z,1016.7
2017-05-24T04:42:27.085Z,1016.68
2017-05-24T04:42:53.184Z,1016.67
2017-05-24T04:43:19.292Z,1016.65
2017-05-24T04:43:45.411Z,1016.67
2017-05-24T04:44:11.557Z,1016.66
2017-05-24T04:44:37.718Z,1016.66
2017-05-24T04:45:03.867Z,1016.72
2017-05-24T04:45:29.982Z,1016.65
2017-05-24T04:45:56.118Z,1016.67
2017-05-24T04:46:22.218Z,1016.68
2017-05-24T04:46:48.330Z,1016.69
2017-05-24T04:47:14.463Z,1016.7
2017-05-24T04:47:40.620Z,1016.72
2017-05-24T04:48:06.773Z,1016.72
2017-05-24T04:48:32.947Z,1016.73
2017-05-24T04:48:59.088Z,1016.78
2017-05-24T04:49:25.197Z,1016.79
2017-05-24T04:49:51.294Z,1016.78
2017-05-24T04:50:17.384Z,1016.79
2017-05-24T04:50:43.493Z,1016.79
2017-05-24T04:51:09.593Z,1016.79
2017-05-24T04:51:35.684Z,1016.81
2017-05-24T04:52:01.787Z,1016.81
2017-05-24T04:52:27.950Z,1016.83
2017-05-24T04:52:54.064Z,1016.82
2017-05-24T04:53:20.164Z,1016.81
2017-05-24T04:53:46.258Z,1016.84
2017-05-24T04:54:12.364Z,1016.85
2017-05-24T04:54:38.491Z,1016.86
2017-05-24T04:55:04.630Z,1016.87
2017-05-24T04:55:30.734Z,1016.9
2017-05-24T04:55:56.896Z,1016.88
2017-05-24T04:56:22.985Z,1016.9
2017-05-24T04:56:49.085Z,1016.88
2017-05-24T04:57:15.191Z,1016.85
2017-05-24T04:57:41.331Z,1016.85
2017-05-24T04:58:07.502Z,1016.89
2017-05-24T04:58:33.611Z,1016.86
2017-05-24T04:58:59.733Z,1016.89
2017-05-24T04:59:25.850Z,1016.91
2017-05-24T04:59:51.988Z,1016.93
2017-05-24T05:00:18.113Z,1016.95
2017-05-24T05:00:44.229Z,1016.97
2017-05-24T05:01:10.363Z,1016.95
2017-05-24T05:01:36.463Z,1016.97
2017-05-24T05:02:02.555Z,1016.99
2017-05-24T05:02:28.661Z,1016.99
2017-05-24T05:02:54.769Z,1017.02
2017-05-24T05:03:20.959Z,1017.04
2017-05-24T05:03:47.059Z,1017.03
2017-05-24T05:04:13.223Z,1017.04
2017-05-24T05:04:39.366Z,1017.05
2017-05-24T05:05:05.499Z,1017.06
2017-05-24T05:05:31.617Z,1017.04
2017-05-24T05:05:57.744Z,1017.03
2017-05-24T05:06:23.850Z,1017.04
2017-05-24T05:06:51.214Z,1017.02
2017-05-24T05:07:18.770Z,1016.98
2017-05-24T05:07:44.904Z,1016.94
2017-05-24T05:08:11.051Z,1016.93
2017-05-24T05:08:37.170Z,1016.9
2017-05-24T05:09:03.358Z,1016.87
2017-05-24T05:09:29.549Z,1016.88
2017-05-24T05:09:57.317Z,1016.85
2017-05-24T05:10:25.030Z,1016.84
2017-05-24T05:10:52.367Z,1016.82
2017-05-24T05:11:19.298Z,1016.89
2017-05-24T05:11:47.167Z,1016.82
2017-05-24T05:12:15.096Z,1016.9
2017-05-24T05:12:41.768Z,1016.86
2017-05-24T05:13:09.549Z,1016.87
2017-05-24T05:13:37.895Z,1016.89
2017-05-24T05:14:04.826Z,1016.9
2017-05-24T05:14:32.649Z,1016.85
2017-05-24T05:14:58.727Z,1016.85
2017-05-24T05:15:24.866Z,1016.84
2017-05-24T05:15:50.994Z,1016.89
2017-05-24T05:16:17.096Z,1016.91
2017-05-24T05:16:43.187Z,1016.89
2017-05-24T05:17:09.302Z,1016.87